sensor_id;sensor_type;location;lat;lon;timestamp;P1;durP1;ratioP1;P2;durP2;ratioP2
20000;SDS011;10161;41.188;-8.642;2024-01-25T00:01:20;35.50;;;31.73;;
20000;SDS011;10161;41.188;-8.642;2024-01-25T00:03:47;35.07;;;31.30;;
20000;SDS011;10161;41.188;-8.642;2024-01-25T00:06:15;35.97;;;31.47;;
20000;SDS011;10161;41.188;-8.642;2024-01-25T00:08:43;34.37;;;30.70;;
20000;SDS011;10161;41.188;-8.642;2024-01-25T00:11:10;35.20;;;31.60;;
20000;SDS011;10161;41.188;-8.642;2024-01-25T00:13:38;38.10;;;33.13;;
20000;SDS011;10161;41.188;-8.642;2024-01-25T00:16:05;38.00;;;33.90;;
20000;SDS011;10161;41.188;-8.642;2024-01-25T00:18:32;38.50;;;34.40;;
20000;SDS011;10161;41.188;-8.642;2024-01-25T00:20:59;37.93;;;33.90;;
20000;SDS011;10161;41.188;-8.642;2024-01-25T00:23:26;40.37;;;36.07;;
20000;SDS011;10161;41.188;-8.642;2024-01-25T00:25:54;42.97;;;37.63;;
20000;SDS011;10161;41.188;-8.642;2024-01-25T00:28:24;46.50;;;37.10;;
20000;SDS011;10161;41.188;-8.642;2024-01-25T00:30:51;45.17;;;38.60;;
20000;SDS011;10161;41.188;-8.642;2024-01-25T00:33:18;43.30;;;37.90;;
20000;SDS011;10161;41.188;-8.642;2024-01-25T00:35:45;46.03;;;37.60;;
20000;SDS011;10161;41.188;-8.642;2024-01-25T00:38:13;44.07;;;38.77;;
20000;SDS011;10161;41.188;-8.642;2024-01-25T00:40:41;44.30;;;38.30;;
20000;SDS011;10161;41.188;-8.642;2024-01-25T00:43:10;46.33;;;38.17;;
20000;SDS011;10161;41.188;-8.642;2024-01-25T00:45:38;42.80;;;37.60;;
20000;SDS011;10161;41.188;-8.642;2024-01-25T00:48:05;43.30;;;38.53;;
20000;SDS011;10161;41.188;-8.642;2024-01-25T00:50:33;47.10;;;40.03;;
20000;SDS011;10161;41.188;-8.642;2024-01-25T00:53:01;45.63;;;39.40;;
20000;SDS011;10161;41.188;-8.642;2024-01-25T00:55:28;45.50;;;37.93;;
20000;SDS011;10161;41.188;-8.642;2024-01-25T00:57:56;48.97;;;40.50;;
20000;SDS011;10161;41.188;-8.642;2024-01-25T01:00:27;48.53;;;40.77;;
20000;SDS011;10161;41.188;-8.642;2024-01-25T01:02:54;44.43;;;38.43;;
20000;SDS011;10161;41.188;-8.642;2024-01-25T01:05:26;49.80;;;40.47;;
20000;SDS011;10161;41.188;-8.642;2024-01-25T01:07:53;48.10;;;40.13;;
20000;SDS011;10161;41.188;-8.642;2024-01-25T01:10:20;46.80;;;38.93;;
20000;SDS011;10161;41.188;-8.642;2024-01-25T01:12:47;45.67;;;39.03;;
20000;SDS011;10161;41.188;-8.642;2024-01-25T01:15:14;50.47;;;40.40;;
20000;SDS011;10161;41.188;-8.642;2024-01-25T01:17:42;50.57;;;40.33;;
20000;SDS011;10161;41.188;-8.642;2024-01-25T01:20:10;48.37;;;40.90;;
20000;SDS011;10161;41.188;-8.642;2024-01-25T01:22:38;46.93;;;39.77;;
20000;SDS011;10161;41.188;-8.642;2024-01-25T01:25:05;46.43;;;38.67;;
20000;SDS011;10161;41.188;-8.642;2024-01-25T01:27:33;47.03;;;39.30;;
20000;SDS011;10161;41.188;-8.642;2024-01-25T01:30:00;46.67;;;38.37;;
20000;SDS011;10161;41.188;-8.642;2024-01-25T01:32:27;43.13;;;38.03;;
20000;SDS011;10161;41.188;-8.642;2024-01-25T01:34:55;44.93;;;37.37;;
20000;SDS011;10161;41.188;-8.642;2024-01-25T01:37:22;45.40;;;37.63;;
20000;SDS011;10161;41.188;-8.642;2024-01-25T01:39:49;44.93;;;38.40;;
20000;SDS011;10161;41.188;-8.642;2024-01-25T01:42:16;42.80;;;36.43;;
20000;SDS011;10161;41.188;-8.642;2024-01-25T01:44:44;45.50;;;36.87;;
20000;SDS011;10161;41.188;-8.642;2024-01-25T01:47:11;46.53;;;36.40;;
20000;SDS011;10161;41.188;-8.642;2024-01-25T01:49:38;44.03;;;37.07;;
20000;SDS011;10161;41.188;-8.642;2024-01-25T01:52:06;41.63;;;36.27;;
20000;SDS011;10161;41.188;-8.642;2024-01-25T01:54:33;42.83;;;33.23;;
20000;SDS011;10161;41.188;-8.642;2024-01-25T01:57:01;46.77;;;36.60;;
20000;SDS011;10161;41.188;-8.642;2024-01-25T01:59:28;42.67;;;35.27;;
20000;SDS011;10161;41.188;-8.642;2024-01-25T02:01:55;42.40;;;35.90;;
20000;SDS011;10161;41.188;-8.642;2024-01-25T02:04:22;44.70;;;35.60;;
20000;SDS011;10161;41.188;-8.642;2024-01-25T02:06:49;38.97;;;33.60;;
20000;SDS011;10161;41.188;-8.642;2024-01-25T02:09:19;45.50;;;35.53;;
20000;SDS011;10161;41.188;-8.642;2024-01-25T02:11:45;41.63;;;34.40;;
20000;SDS011;10161;41.188;-8.642;2024-01-25T02:14:12;39.53;;;33.97;;
20000;SDS011;10161;41.188;-8.642;2024-01-25T02:16:40;36.40;;;32.27;;
20000;SDS011;10161;41.188;-8.642;2024-01-25T02:19:10;39.70;;;33.27;;
20000;SDS011;10161;41.188;-8.642;2024-01-25T02:21:37;38.50;;;32.37;;
20000;SDS011;10161;41.188;-8.642;2024-01-25T02:24:06;37.90;;;32.90;;
20000;SDS011;10161;41.188;-8.642;2024-01-25T02:26:35;38.63;;;32.70;;
20000;SDS011;10161;41.188;-8.642;2024-01-25T02:29:02;37.43;;;32.30;;
20000;SDS011;10161;41.188;-8.642;2024-01-25T02:31:30;35.80;;;31.10;;
20000;SDS011;10161;41.188;-8.642;2024-01-25T02:33:57;37.50;;;32.93;;
20000;SDS011;10161;41.188;-8.642;2024-01-25T02:36:24;38.70;;;31.77;;
20000;SDS011;10161;41.188;-8.642;2024-01-25T02:38:51;36.13;;;30.80;;
20000;SDS011;10161;41.188;-8.642;2024-01-25T02:41:19;39.60;;;33.33;;
20000;SDS011;10161;41.188;-8.642;2024-01-25T02:43:46;35.40;;;30.57;;
20000;SDS011;10161;41.188;-8.642;2024-01-25T02:46:13;37.07;;;30.20;;
20000;SDS011;10161;41.188;-8.642;2024-01-25T02:48:40;32.57;;;28.60;;
20000;SDS011;10161;41.188;-8.642;2024-01-25T02:51:07;37.63;;;30.47;;
20000;SDS011;10161;41.188;-8.642;2024-01-25T02:53:34;33.53;;;29.83;;
20000;SDS011;10161;41.188;-8.642;2024-01-25T02:56:01;34.47;;;30.80;;
20000;SDS011;10161;41.188;-8.642;2024-01-25T02:58:29;34.13;;;28.90;;
20000;SDS011;10161;41.188;-8.642;2024-01-25T03:00:56;33.10;;;28.03;;
20000;SDS011;10161;41.188;-8.642;2024-01-25T03:03:23;34.23;;;29.20;;
20000;SDS011;10161;41.188;-8.642;2024-01-25T03:05:51;30.77;;;27.30;;
20000;SDS011;10161;41.188;-8.642;2024-01-25T03:08:18;33.03;;;28.33;;
20000;SDS011;10161;41.188;-8.642;2024-01-25T03:10:45;34.03;;;30.37;;
20000;SDS011;10161;41.188;-8.642;2024-01-25T03:13:14;33.23;;;27.73;;
20000;SDS011;10161;41.188;-8.642;2024-01-25T03:15:43;34.70;;;28.37;;
20000;SDS011;10161;41.188;-8.642;2024-01-25T03:18:10;33.03;;;27.40;;
20000;SDS011;10161;41.188;-8.642;2024-01-25T03:20:37;31.20;;;27.13;;
20000;SDS011;10161;41.188;-8.642;2024-01-25T03:23:04;32.37;;;26.27;;
20000;SDS011;10161;41.188;-8.642;2024-01-25T03:25:31;31.30;;;27.90;;
20000;SDS011;10161;41.188;-8.642;2024-01-25T03:27:58;32.33;;;27.20;;
20000;SDS011;10161;41.188;-8.642;2024-01-25T03:30:25;32.10;;;26.60;;
20000;SDS011;10161;41.188;-8.642;2024-01-25T03:32:53;30.37;;;27.07;;
20000;SDS011;10161;41.188;-8.642;2024-01-25T03:35:20;28.93;;;24.87;;
20000;SDS011;10161;41.188;-8.642;2024-01-25T03:37:47;29.00;;;25.73;;
20000;SDS011;10161;41.188;-8.642;2024-01-25T03:40:14;30.87;;;26.13;;
20000;SDS011;10161;41.188;-8.642;2024-01-25T03:42:41;29.80;;;26.30;;
20000;SDS011;10161;41.188;-8.642;2024-01-25T03:45:08;29.70;;;24.80;;
20000;SDS011;10161;41.188;-8.642;2024-01-25T03:47:35;27.83;;;24.80;;
20000;SDS011;10161;41.188;-8.642;2024-01-25T03:50:04;25.43;;;22.67;;
20000;SDS011;10161;41.188;-8.642;2024-01-25T03:52:31;28.13;;;24.30;;
20000;SDS011;10161;41.188;-8.642;2024-01-25T03:54:58;26.97;;;24.07;;
20000;SDS011;10161;41.188;-8.642;2024-01-25T03:57:25;27.70;;;24.77;;
20000;SDS011;10161;41.188;-8.642;2024-01-25T03:59:52;29.30;;;24.90;;
20000;SDS011;10161;41.188;-8.642;2024-01-25T04:02:19;28.30;;;25.23;;
20000;SDS011;10161;41.188;-8.642;2024-01-25T04:04:46;26.00;;;22.80;;
20000;SDS011;10161;41.188;-8.642;2024-01-25T04:07:15;27.07;;;23.97;;
20000;SDS011;10161;41.188;-8.642;2024-01-25T04:09:42;27.20;;;23.53;;
20000;SDS011;10161;41.188;-8.642;2024-01-25T04:12:09;28.60;;;23.20;;
20000;SDS011;10161;41.188;-8.642;2024-01-25T04:14:36;26.50;;;23.37;;
20000;SDS011;10161;41.188;-8.642;2024-01-25T04:17:03;25.47;;;22.07;;
20000;SDS011;10161;41.188;-8.642;2024-01-25T04:19:30;25.50;;;22.20;;
20000;SDS011;10161;41.188;-8.642;2024-01-25T04:21:57;25.23;;;21.97;;
20000;SDS011;10161;41.188;-8.642;2024-01-25T04:24:26;24.00;;;21.43;;
20000;SDS011;10161;41.188;-8.642;2024-01-25T04:26:53;26.97;;;23.33;;
20000;SDS011;10161;41.188;-8.642;2024-01-25T04:29:20;26.17;;;21.83;;
20000;SDS011;10161;41.188;-8.642;2024-01-25T04:31:47;26.30;;;22.30;;
20000;SDS011;10161;41.188;-8.642;2024-01-25T04:34:14;23.37;;;20.60;;
20000;SDS011;10161;41.188;-8.642;2024-01-25T04:36:42;24.30;;;21.50;;
20000;SDS011;10161;41.188;-8.642;2024-01-25T04:39:09;23.47;;;20.57;;
20000;SDS011;10161;41.188;-8.642;2024-01-25T04:41:37;23.13;;;20.57;;
20000;SDS011;10161;41.188;-8.642;2024-01-25T04:44:04;22.40;;;19.93;;
20000;SDS011;10161;41.188;-8.642;2024-01-25T04:46:31;24.40;;;21.13;;
20000;SDS011;10161;41.188;-8.642;2024-01-25T04:49:01;21.40;;;18.77;;
20000;SDS011;10161;41.188;-8.642;2024-01-25T04:51:28;22.40;;;19.63;;
20000;SDS011;10161;41.188;-8.642;2024-01-25T04:53:55;22.70;;;20.30;;
20000;SDS011;10161;41.188;-8.642;2024-01-25T04:56:22;22.90;;;20.50;;
20000;SDS011;10161;41.188;-8.642;2024-01-25T04:58:51;21.90;;;19.50;;
20000;SDS011;10161;41.188;-8.642;2024-01-25T05:01:18;21.17;;;18.97;;
20000;SDS011;10161;41.188;-8.642;2024-01-25T05:03:45;19.73;;;17.70;;
20000;SDS011;10161;41.188;-8.642;2024-01-25T05:06:12;21.33;;;19.03;;
20000;SDS011;10161;41.188;-8.642;2024-01-25T05:08:41;21.53;;;19.23;;
20000;SDS011;10161;41.188;-8.642;2024-01-25T05:11:08;21.60;;;17.80;;
20000;SDS011;10161;41.188;-8.642;2024-01-25T05:13:35;22.67;;;19.23;;
20000;SDS011;10161;41.188;-8.642;2024-01-25T05:16:04;22.77;;;18.83;;
20000;SDS011;10161;41.188;-8.642;2024-01-25T05:18:31;21.67;;;18.40;;
20000;SDS011;10161;41.188;-8.642;2024-01-25T05:20:58;19.23;;;16.60;;
20000;SDS011;10161;41.188;-8.642;2024-01-25T05:23:25;19.60;;;17.60;;
20000;SDS011;10161;41.188;-8.642;2024-01-25T05:25:52;22.03;;;19.00;;
20000;SDS011;10161;41.188;-8.642;2024-01-25T05:28:19;19.20;;;16.93;;
20000;SDS011;10161;41.188;-8.642;2024-01-25T05:30:46;19.30;;;17.23;;
20000;SDS011;10161;41.188;-8.642;2024-01-25T05:33:16;18.30;;;16.40;;
20000;SDS011;10161;41.188;-8.642;2024-01-25T05:35:43;18.70;;;16.70;;
20000;SDS011;10161;41.188;-8.642;2024-01-25T05:38:10;19.70;;;17.70;;
20000;SDS011;10161;41.188;-8.642;2024-01-25T05:40:37;18.77;;;16.80;;
20000;SDS011;10161;41.188;-8.642;2024-01-25T05:43:04;18.10;;;16.20;;
20000;SDS011;10161;41.188;-8.642;2024-01-25T05:45:31;17.60;;;15.70;;
20000;SDS011;10161;41.188;-8.642;2024-01-25T05:47:58;18.13;;;16.23;;
20000;SDS011;10161;41.188;-8.642;2024-01-25T05:50:26;18.07;;;16.17;;
20000;SDS011;10161;41.188;-8.642;2024-01-25T05:52:53;18.27;;;16.00;;
20000;SDS011;10161;41.188;-8.642;2024-01-25T05:55:20;17.80;;;16.00;;
20000;SDS011;10161;41.188;-8.642;2024-01-25T05:57:47;17.57;;;15.70;;
20000;SDS011;10161;41.188;-8.642;2024-01-25T06:00:14;17.80;;;15.90;;
20000;SDS011;10161;41.188;-8.642;2024-01-25T06:02:42;17.03;;;15.23;;
20000;SDS011;10161;41.188;-8.642;2024-01-25T06:05:09;17.23;;;15.40;;
20000;SDS011;10161;41.188;-8.642;2024-01-25T06:07:38;17.53;;;15.40;;
20000;SDS011;10161;41.188;-8.642;2024-01-25T06:10:06;16.80;;;14.83;;
20000;SDS011;10161;41.188;-8.642;2024-01-25T06:12:34;14.63;;;13.10;;
20000;SDS011;10161;41.188;-8.642;2024-01-25T06:15:00;17.10;;;14.67;;
20000;SDS011;10161;41.188;-8.642;2024-01-25T06:17:27;16.47;;;14.73;;
20000;SDS011;10161;41.188;-8.642;2024-01-25T06:19:55;16.37;;;14.40;;
20000;SDS011;10161;41.188;-8.642;2024-01-25T06:22:22;16.20;;;14.60;;
20000;SDS011;10161;41.188;-8.642;2024-01-25T06:24:50;14.83;;;13.23;;
20000;SDS011;10161;41.188;-8.642;2024-01-25T06:27:17;15.50;;;13.93;;
20000;SDS011;10161;41.188;-8.642;2024-01-25T06:29:44;15.17;;;13.57;;
20000;SDS011;10161;41.188;-8.642;2024-01-25T06:32:11;16.70;;;13.53;;
20000;SDS011;10161;41.188;-8.642;2024-01-25T06:34:38;14.97;;;13.33;;
20000;SDS011;10161;41.188;-8.642;2024-01-25T06:37:05;14.40;;;12.90;;
20000;SDS011;10161;41.188;-8.642;2024-01-25T06:39:36;15.13;;;13.33;;
20000;SDS011;10161;41.188;-8.642;2024-01-25T06:42:05;15.10;;;13.50;;
20000;SDS011;10161;41.188;-8.642;2024-01-25T06:44:32;13.80;;;12.40;;
20000;SDS011;10161;41.188;-8.642;2024-01-25T06:46:59;14.67;;;12.67;;
20000;SDS011;10161;41.188;-8.642;2024-01-25T06:49:26;13.87;;;12.47;;
20000;SDS011;10161;41.188;-8.642;2024-01-25T06:51:53;12.97;;;11.67;;
20000;SDS011;10161;41.188;-8.642;2024-01-25T06:54:20;12.33;;;11.13;;
20000;SDS011;10161;41.188;-8.642;2024-01-25T06:56:47;13.90;;;12.50;;
20000;SDS011;10161;41.188;-8.642;2024-01-25T06:59:18;13.70;;;12.37;;
20000;SDS011;10161;41.188;-8.642;2024-01-25T07:01:44;13.60;;;12.20;;
20000;SDS011;10161;41.188;-8.642;2024-01-25T07:04:12;13.20;;;11.90;;
20000;SDS011;10161;41.188;-8.642;2024-01-25T07:06:39;13.10;;;11.80;;
20000;SDS011;10161;41.188;-8.642;2024-01-25T07:09:06;11.80;;;10.60;;
20000;SDS011;10161;41.188;-8.642;2024-01-25T07:11:33;10.90;;;9.80;;
20000;SDS011;10161;41.188;-8.642;2024-01-25T07:14:00;10.47;;;9.47;;
20000;SDS011;10161;41.188;-8.642;2024-01-25T07:16:29;11.97;;;10.77;;
20000;SDS011;10161;41.188;-8.642;2024-01-25T07:18:56;10.80;;;9.70;;
20000;SDS011;10161;41.188;-8.642;2024-01-25T07:21:23;10.70;;;9.70;;
20000;SDS011;10161;41.188;-8.642;2024-01-25T07:23:50;10.20;;;9.20;;
20000;SDS011;10161;41.188;-8.642;2024-01-25T07:26:17;10.97;;;9.87;;
20000;SDS011;10161;41.188;-8.642;2024-01-25T07:28:44;10.30;;;9.30;;
20000;SDS011;10161;41.188;-8.642;2024-01-25T07:31:11;8.50;;;7.70;;
20000;SDS011;10161;41.188;-8.642;2024-01-25T07:33:39;9.27;;;8.37;;
20000;SDS011;10161;41.188;-8.642;2024-01-25T07:36:06;8.73;;;7.93;;
20000;SDS011;10161;41.188;-8.642;2024-01-25T07:38:33;9.00;;;8.13;;
20000;SDS011;10161;41.188;-8.642;2024-01-25T07:41:00;9.30;;;8.00;;
20000;SDS011;10161;41.188;-8.642;2024-01-25T07:43:27;8.60;;;7.80;;
20000;SDS011;10161;41.188;-8.642;2024-01-25T07:45:54;7.73;;;7.00;;
20000;SDS011;10161;41.188;-8.642;2024-01-25T07:48:21;7.80;;;7.00;;
20000;SDS011;10161;41.188;-8.642;2024-01-25T07:50:50;7.80;;;7.10;;
20000;SDS011;10161;41.188;-8.642;2024-01-25T07:53:16;7.87;;;7.17;;
20000;SDS011;10161;41.188;-8.642;2024-01-25T07:55:43;7.90;;;7.10;;
20000;SDS011;10161;41.188;-8.642;2024-01-25T07:58:10;7.13;;;6.43;;
20000;SDS011;10161;41.188;-8.642;2024-01-25T08:00:37;7.77;;;6.97;;
20000;SDS011;10161;41.188;-8.642;2024-01-25T08:03:04;8.50;;;7.40;;
20000;SDS011;10161;41.188;-8.642;2024-01-25T08:05:31;7.13;;;6.53;;
20000;SDS011;10161;41.188;-8.642;2024-01-25T08:08:00;7.23;;;6.53;;
20000;SDS011;10161;41.188;-8.642;2024-01-25T08:10:27;6.60;;;6.00;;
20000;SDS011;10161;41.188;-8.642;2024-01-25T08:12:54;6.93;;;6.23;;
20000;SDS011;10161;41.188;-8.642;2024-01-25T08:15:21;7.60;;;6.47;;
20000;SDS011;10161;41.188;-8.642;2024-01-25T08:17:48;7.47;;;6.77;;
20000;SDS011;10161;41.188;-8.642;2024-01-25T08:20:14;7.03;;;6.40;;
20000;SDS011;10161;41.188;-8.642;2024-01-25T08:22:41;6.70;;;6.10;;
20000;SDS011;10161;41.188;-8.642;2024-01-25T08:25:10;6.90;;;6.30;;
20000;SDS011;10161;41.188;-8.642;2024-01-25T08:27:38;7.10;;;6.50;;
20000;SDS011;10161;41.188;-8.642;2024-01-25T08:30:06;9.77;;;7.33;;
20000;SDS011;10161;41.188;-8.642;2024-01-25T08:32:34;7.13;;;6.50;;
20000;SDS011;10161;41.188;-8.642;2024-01-25T08:35:01;7.20;;;6.50;;
20000;SDS011;10161;41.188;-8.642;2024-01-25T08:37:28;7.90;;;7.20;;
20000;SDS011;10161;41.188;-8.642;2024-01-25T08:39:55;7.90;;;7.20;;
20000;SDS011;10161;41.188;-8.642;2024-01-25T08:42:24;7.37;;;6.67;;
20000;SDS011;10161;41.188;-8.642;2024-01-25T08:44:50;7.67;;;6.97;;
20000;SDS011;10161;41.188;-8.642;2024-01-25T08:47:18;8.00;;;7.30;;
20000;SDS011;10161;41.188;-8.642;2024-01-25T08:49:45;7.90;;;7.10;;
20000;SDS011;10161;41.188;-8.642;2024-01-25T08:52:12;7.83;;;7.13;;
20000;SDS011;10161;41.188;-8.642;2024-01-25T08:54:40;8.20;;;7.40;;
20000;SDS011;10161;41.188;-8.642;2024-01-25T08:57:07;6.47;;;5.87;;
20000;SDS011;10161;41.188;-8.642;2024-01-25T08:59:36;6.70;;;6.10;;
20000;SDS011;10161;41.188;-8.642;2024-01-25T09:02:03;7.30;;;6.47;;
20000;SDS011;10161;41.188;-8.642;2024-01-25T09:04:31;7.10;;;6.50;;
20000;SDS011;10161;41.188;-8.642;2024-01-25T09:06:58;6.67;;;5.97;;
20000;SDS011;10161;41.188;-8.642;2024-01-25T09:09:25;5.90;;;5.40;;
20000;SDS011;10161;41.188;-8.642;2024-01-25T09:11:52;6.10;;;5.60;;
20000;SDS011;10161;41.188;-8.642;2024-01-25T09:14:20;5.30;;;4.90;;
20000;SDS011;10161;41.188;-8.642;2024-01-25T09:16:48;5.50;;;5.00;;
20000;SDS011;10161;41.188;-8.642;2024-01-25T09:19:15;5.70;;;5.20;;
20000;SDS011;10161;41.188;-8.642;2024-01-25T09:21:42;5.27;;;4.77;;
20000;SDS011;10161;41.188;-8.642;2024-01-25T09:24:09;4.73;;;4.23;;
20000;SDS011;10161;41.188;-8.642;2024-01-25T09:26:36;4.90;;;4.50;;
20000;SDS011;10161;41.188;-8.642;2024-01-25T09:29:03;4.57;;;4.17;;
20000;SDS011;10161;41.188;-8.642;2024-01-25T09:31:30;4.60;;;4.20;;
20000;SDS011;10161;41.188;-8.642;2024-01-25T09:33:59;4.60;;;4.20;;
20000;SDS011;10161;41.188;-8.642;2024-01-25T09:36:26;4.13;;;3.83;;
20000;SDS011;10161;41.188;-8.642;2024-01-25T09:38:53;3.80;;;3.50;;
20000;SDS011;10161;41.188;-8.642;2024-01-25T09:41:20;3.53;;;3.23;;
20000;SDS011;10161;41.188;-8.642;2024-01-25T09:43:47;3.97;;;3.57;;
20000;SDS011;10161;41.188;-8.642;2024-01-25T09:46:14;4.30;;;3.90;;
20000;SDS011;10161;41.188;-8.642;2024-01-25T09:48:41;3.80;;;3.40;;
20000;SDS011;10161;41.188;-8.642;2024-01-25T09:51:12;3.77;;;3.47;;
20000;SDS011;10161;41.188;-8.642;2024-01-25T09:53:39;3.80;;;3.50;;
20000;SDS011;10161;41.188;-8.642;2024-01-25T09:56:07;5.37;;;3.80;;
20000;SDS011;10161;41.188;-8.642;2024-01-25T09:58:39;3.50;;;3.20;;
20000;SDS011;10161;41.188;-8.642;2024-01-25T10:01:11;3.00;;;2.77;;
20000;SDS011;10161;41.188;-8.642;2024-01-25T10:03:41;3.50;;;3.20;;
20000;SDS011;10161;41.188;-8.642;2024-01-25T10:06:08;2.93;;;2.73;;
20000;SDS011;10161;41.188;-8.642;2024-01-25T10:08:37;3.33;;;3.03;;
20000;SDS011;10161;41.188;-8.642;2024-01-25T10:11:04;3.40;;;3.20;;
20000;SDS011;10161;41.188;-8.642;2024-01-25T10:13:39;3.53;;;3.23;;
20000;SDS011;10161;41.188;-8.642;2024-01-25T10:16:07;3.87;;;3.57;;
20000;SDS011;10161;41.188;-8.642;2024-01-25T10:18:36;3.20;;;3.00;;
20000;SDS011;10161;41.188;-8.642;2024-01-25T10:21:03;3.80;;;3.33;;
20000;SDS011;10161;41.188;-8.642;2024-01-25T10:23:30;3.53;;;3.30;;
20000;SDS011;10161;41.188;-8.642;2024-01-25T10:25:59;3.60;;;3.30;;
20000;SDS011;10161;41.188;-8.642;2024-01-25T10:28:26;3.70;;;3.40;;
20000;SDS011;10161;41.188;-8.642;2024-01-25T10:30:55;3.80;;;3.50;;
20000;SDS011;10161;41.188;-8.642;2024-01-25T10:33:22;4.23;;;3.60;;
20000;SDS011;10161;41.188;-8.642;2024-01-25T10:35:50;4.27;;;3.93;;
20000;SDS011;10161;41.188;-8.642;2024-01-25T10:38:21;4.87;;;4.43;;
20000;SDS011;10161;41.188;-8.642;2024-01-25T10:40:48;5.00;;;4.50;;
20000;SDS011;10161;41.188;-8.642;2024-01-25T10:43:17;5.30;;;4.80;;
20000;SDS011;10161;41.188;-8.642;2024-01-25T10:45:44;6.00;;;5.00;;
20000;SDS011;10161;41.188;-8.642;2024-01-25T10:48:11;5.90;;;5.20;;
20000;SDS011;10161;41.188;-8.642;2024-01-25T10:50:39;6.30;;;5.70;;
20000;SDS011;10161;41.188;-8.642;2024-01-25T10:53:06;6.03;;;5.50;;
20000;SDS011;10161;41.188;-8.642;2024-01-25T10:55:34;7.30;;;6.07;;
20000;SDS011;10161;41.188;-8.642;2024-01-25T10:58:01;6.30;;;5.70;;
20000;SDS011;10161;41.188;-8.642;2024-01-25T11:00:30;6.17;;;5.57;;
20000;SDS011;10161;41.188;-8.642;2024-01-25T11:02:58;8.63;;;6.80;;
20000;SDS011;10161;41.188;-8.642;2024-01-25T11:05:27;8.37;;;6.50;;
20000;SDS011;10161;41.188;-8.642;2024-01-25T11:07:54;6.93;;;6.27;;
20000;SDS011;10161;41.188;-8.642;2024-01-25T11:10:22;8.20;;;7.20;;
20000;SDS011;10161;41.188;-8.642;2024-01-25T11:12:50;7.97;;;7.17;;
20000;SDS011;10161;41.188;-8.642;2024-01-25T11:15:21;7.90;;;7.10;;
20000;SDS011;10161;41.188;-8.642;2024-01-25T11:17:57;8.23;;;7.27;;
20000;SDS011;10161;41.188;-8.642;2024-01-25T11:20:25;8.17;;;7.30;;
20000;SDS011;10161;41.188;-8.642;2024-01-25T11:22:56;8.37;;;7.50;;
20000;SDS011;10161;41.188;-8.642;2024-01-25T11:25:26;8.90;;;8.00;;
20000;SDS011;10161;41.188;-8.642;2024-01-25T11:27:53;9.20;;;8.20;;
20000;SDS011;10161;41.188;-8.642;2024-01-25T11:30:21;8.80;;;7.70;;
20000;SDS011;10161;41.188;-8.642;2024-01-25T11:32:48;13.77;;;8.67;;
20000;SDS011;10161;41.188;-8.642;2024-01-25T11:35:16;10.03;;;9.03;;
20000;SDS011;10161;41.188;-8.642;2024-01-25T11:37:43;11.00;;;9.80;;
20000;SDS011;10161;41.188;-8.642;2024-01-25T11:40:11;9.27;;;8.37;;
20000;SDS011;10161;41.188;-8.642;2024-01-25T11:42:38;10.27;;;9.27;;
20000;SDS011;10161;41.188;-8.642;2024-01-25T11:45:08;10.00;;;9.00;;
20000;SDS011;10161;41.188;-8.642;2024-01-25T11:47:39;9.93;;;8.67;;
20000;SDS011;10161;41.188;-8.642;2024-01-25T11:50:07;9.90;;;8.63;;
20000;SDS011;10161;41.188;-8.642;2024-01-25T11:52:39;11.33;;;9.30;;
20000;SDS011;10161;41.188;-8.642;2024-01-25T11:55:06;10.13;;;7.97;;
20000;SDS011;10161;41.188;-8.642;2024-01-25T11:57:35;10.03;;;8.60;;
20000;SDS011;10161;41.188;-8.642;2024-01-25T12:00:04;9.47;;;8.47;;
20000;SDS011;10161;41.188;-8.642;2024-01-25T12:02:34;8.67;;;7.87;;
20000;SDS011;10161;41.188;-8.642;2024-01-25T12:05:02;9.17;;;8.10;;
20000;SDS011;10161;41.188;-8.642;2024-01-25T12:07:30;10.07;;;9.07;;
20000;SDS011;10161;41.188;-8.642;2024-01-25T12:10:01;10.00;;;9.00;;
20000;SDS011;10161;41.188;-8.642;2024-01-25T12:12:29;10.53;;;9.50;;
20000;SDS011;10161;41.188;-8.642;2024-01-25T12:14:59;14.70;;;8.90;;
20000;SDS011;10161;41.188;-8.642;2024-01-25T12:17:27;9.70;;;8.40;;
20000;SDS011;10161;41.188;-8.642;2024-01-25T12:19:55;9.07;;;8.17;;
20000;SDS011;10161;41.188;-8.642;2024-01-25T12:22:22;10.53;;;9.47;;
20000;SDS011;10161;41.188;-8.642;2024-01-25T12:24:50;11.13;;;9.70;;
20000;SDS011;10161;41.188;-8.642;2024-01-25T12:27:21;10.60;;;9.50;;
20000;SDS011;10161;41.188;-8.642;2024-01-25T12:29:48;10.63;;;9.60;;
20000;SDS011;10161;41.188;-8.642;2024-01-25T12:32:15;9.60;;;8.60;;
20000;SDS011;10161;41.188;-8.642;2024-01-25T12:34:42;10.40;;;9.27;;
20000;SDS011;10161;41.188;-8.642;2024-01-25T12:37:19;9.30;;;8.40;;
20000;SDS011;10161;41.188;-8.642;2024-01-25T12:39:46;10.33;;;9.23;;
20000;SDS011;10161;41.188;-8.642;2024-01-25T12:42:13;10.27;;;8.63;;
20000;SDS011;10161;41.188;-8.642;2024-01-25T12:44:41;9.10;;;8.10;;
20000;SDS011;10161;41.188;-8.642;2024-01-25T12:47:10;10.00;;;9.00;;
20000;SDS011;10161;41.188;-8.642;2024-01-25T12:49:39;9.80;;;8.87;;
20000;SDS011;10161;41.188;-8.642;2024-01-25T12:52:06;9.70;;;8.70;;
20000;SDS011;10161;41.188;-8.642;2024-01-25T12:54:34;9.70;;;8.63;;
20000;SDS011;10161;41.188;-8.642;2024-01-25T12:57:01;11.00;;;9.20;;
20000;SDS011;10161;41.188;-8.642;2024-01-25T12:59:28;10.57;;;9.47;;
20000;SDS011;10161;41.188;-8.642;2024-01-25T13:01:56;10.00;;;9.00;;
20000;SDS011;10161;41.188;-8.642;2024-01-25T13:04:23;9.43;;;8.53;;
20000;SDS011;10161;41.188;-8.642;2024-01-25T13:06:52;10.17;;;9.00;;
20000;SDS011;10161;41.188;-8.642;2024-01-25T13:09:19;10.30;;;9.23;;
20000;SDS011;10161;41.188;-8.642;2024-01-25T13:11:46;9.90;;;8.90;;
20000;SDS011;10161;41.188;-8.642;2024-01-25T13:14:13;11.27;;;9.80;;
20000;SDS011;10161;41.188;-8.642;2024-01-25T13:16:40;10.90;;;9.80;;
20000;SDS011;10161;41.188;-8.642;2024-01-25T13:19:09;11.63;;;10.40;;
20000;SDS011;10161;41.188;-8.642;2024-01-25T13:21:36;15.40;;;10.53;;
20000;SDS011;10161;41.188;-8.642;2024-01-25T13:24:04;11.57;;;10.30;;
20000;SDS011;10161;41.188;-8.642;2024-01-25T13:26:32;12.53;;;11.33;;
20000;SDS011;10161;41.188;-8.642;2024-01-25T13:29:00;11.83;;;10.17;;
20000;SDS011;10161;41.188;-8.642;2024-01-25T13:31:28;12.47;;;11.17;;
20000;SDS011;10161;41.188;-8.642;2024-01-25T13:33:55;11.83;;;10.60;;
20000;SDS011;10161;41.188;-8.642;2024-01-25T13:36:24;13.63;;;11.30;;
20000;SDS011;10161;41.188;-8.642;2024-01-25T13:38:51;14.23;;;12.40;;
20000;SDS011;10161;41.188;-8.642;2024-01-25T13:41:18;13.47;;;12.07;;
20000;SDS011;10161;41.188;-8.642;2024-01-25T13:43:44;16.00;;;14.30;;
20000;SDS011;10161;41.188;-8.642;2024-01-25T13:46:11;16.60;;;14.90;;
20000;SDS011;10161;41.188;-8.642;2024-01-25T13:48:38;17.90;;;15.60;;
20000;SDS011;10161;41.188;-8.642;2024-01-25T13:51:05;23.90;;;18.07;;
20000;SDS011;10161;41.188;-8.642;2024-01-25T13:53:35;20.57;;;18.33;;
20000;SDS011;10161;41.188;-8.642;2024-01-25T13:56:02;23.53;;;20.87;;
20000;SDS011;10161;41.188;-8.642;2024-01-25T13:58:29;22.23;;;19.23;;
20000;SDS011;10161;41.188;-8.642;2024-01-25T14:00:56;22.40;;;19.50;;
20000;SDS011;10161;41.188;-8.642;2024-01-25T14:03:23;28.20;;;22.87;;
20000;SDS011;10161;41.188;-8.642;2024-01-25T14:05:50;31.40;;;25.83;;
20000;SDS011;10161;41.188;-8.642;2024-01-25T14:08:17;29.70;;;24.50;;
20000;SDS011;10161;41.188;-8.642;2024-01-25T14:10:46;28.40;;;25.07;;
20000;SDS011;10161;41.188;-8.642;2024-01-25T14:13:12;31.27;;;26.37;;
20000;SDS011;10161;41.188;-8.642;2024-01-25T14:15:39;28.77;;;23.97;;
20000;SDS011;10161;41.188;-8.642;2024-01-25T14:18:06;28.47;;;24.17;;
20000;SDS011;10161;41.188;-8.642;2024-01-25T14:20:33;27.93;;;23.60;;